sensor_id;sensor_type;location;lat;lon;timestamp;temperature;humidity
39931;DHT22;26635;-35.248;149.138;2023-03-23T00:01:26;16.30;98.40
39931;DHT22;26635;-35.248;149.138;2023-03-23T00:03:58;16.40;98.40
39931;DHT22;26635;-35.248;149.138;2023-03-23T00:06:28;16.30;98.40
39931;DHT22;26635;-35.248;149.138;2023-03-23T00:09:02;16.40;98.40
39931;DHT22;26635;-35.248;149.138;2023-03-23T00:11:32;16.40;98.50
39931;DHT22;26635;-35.248;149.138;2023-03-23T00:14:01;16.50;98.50
39931;DHT22;26635;-35.248;149.138;2023-03-23T00:16:31;16.50;98.90
39931;DHT22;26635;-35.248;149.138;2023-03-23T00:19:03;16.50;99.00
39931;DHT22;26635;-35.248;149.138;2023-03-23T00:21:34;16.60;99.10
39931;DHT22;26635;-35.248;149.138;2023-03-23T00:24:16;16.60;99.20
39931;DHT22;26635;-35.248;149.138;2023-03-23T00:26:46;16.80;99.10
39931;DHT22;26635;-35.248;149.138;2023-03-23T00:29:21;16.80;99.10
39931;DHT22;26635;-35.248;149.138;2023-03-23T00:31:50;16.80;98.90
39931;DHT22;26635;-35.248;149.138;2023-03-23T00:34:23;16.90;98.80
39931;DHT22;26635;-35.248;149.138;2023-03-23T00:36:54;16.90;98.60
39931;DHT22;26635;-35.248;149.138;2023-03-23T00:39:25;16.90;98.40
39931;DHT22;26635;-35.248;149.138;2023-03-23T00:41:55;17.00;98.50
39931;DHT22;26635;-35.248;149.138;2023-03-23T00:44:28;17.00;98.40
39931;DHT22;26635;-35.248;149.138;2023-03-23T00:46:58;17.10;98.30
39931;DHT22;26635;-35.248;149.138;2023-03-23T00:49:26;17.10;98.10
39931;DHT22;26635;-35.248;149.138;2023-03-23T00:51:56;17.10;97.90
39931;DHT22;26635;-35.248;149.138;2023-03-23T00:54:25;17.20;97.80
39931;DHT22;26635;-35.248;149.138;2023-03-23T00:56:54;17.10;97.30
39931;DHT22;26635;-35.248;149.138;2023-03-23T00:59:22;17.20;97.40
39931;DHT22;26635;-35.248;149.138;2023-03-23T01:01:51;17.10;97.40
39931;DHT22;26635;-35.248;149.138;2023-03-23T01:04:19;17.10;97.50
39931;DHT22;26635;-35.248;149.138;2023-03-23T01:06:49;17.10;97.60
39931;DHT22;26635;-35.248;149.138;2023-03-23T01:09:19;17.00;97.70
39931;DHT22;26635;-35.248;149.138;2023-03-23T01:11:52;17.10;98.00
39931;DHT22;26635;-35.248;149.138;2023-03-23T01:14:23;17.00;97.80
39931;DHT22;26635;-35.248;149.138;2023-03-23T01:16:52;17.00;97.80
39931;DHT22;26635;-35.248;149.138;2023-03-23T01:19:20;17.00;98.20
39931;DHT22;26635;-35.248;149.138;2023-03-23T01:21:49;17.00;97.80
39931;DHT22;26635;-35.248;149.138;2023-03-23T01:24:17;17.00;97.80
39931;DHT22;26635;-35.248;149.138;2023-03-23T01:26:45;17.00;97.70
39931;DHT22;26635;-35.248;149.138;2023-03-23T01:29:13;17.00;97.80
39931;DHT22;26635;-35.248;149.138;2023-03-23T01:31:42;17.00;98.00
39931;DHT22;26635;-35.248;149.138;2023-03-23T01:34:10;17.00;98.10
39931;DHT22;26635;-35.248;149.138;2023-03-23T01:36:39;17.00;98.20
39931;DHT22;26635;-35.248;149.138;2023-03-23T01:39:07;17.00;98.10
39931;DHT22;26635;-35.248;149.138;2023-03-23T01:41:36;17.00;98.20
39931;DHT22;26635;-35.248;149.138;2023-03-23T01:44:07;17.00;98.20
39931;DHT22;26635;-35.248;149.138;2023-03-23T01:46:36;17.00;98.20
39931;DHT22;26635;-35.248;149.138;2023-03-23T01:49:09;17.00;98.20
39931;DHT22;26635;-35.248;149.138;2023-03-23T01:51:54;17.00;98.30
39931;DHT22;26635;-35.248;149.138;2023-03-23T01:54:25;17.00;98.20
39931;DHT22;26635;-35.248;149.138;2023-03-23T01:57:07;17.10;98.50
39931;DHT22;26635;-35.248;149.138;2023-03-23T01:59:38;17.10;98.70
39931;DHT22;26635;-35.248;149.138;2023-03-23T02:02:08;17.10;98.90
39931;DHT22;26635;-35.248;149.138;2023-03-23T02:04:39;17.10;99.00
39931;DHT22;26635;-35.248;149.138;2023-03-23T02:07:10;17.10;98.80
39931;DHT22;26635;-35.248;149.138;2023-03-23T02:09:40;17.10;98.60
39931;DHT22;26635;-35.248;149.138;2023-03-23T02:12:08;17.20;98.80
39931;DHT22;26635;-35.248;149.138;2023-03-23T02:14:36;17.20;99.10
39931;DHT22;26635;-35.248;149.138;2023-03-23T02:17:59;17.20;99.00
39931;DHT22;26635;-35.248;149.138;2023-03-23T02:23:19;17.20;98.90
39931;DHT22;26635;-35.248;149.138;2023-03-23T02:26:11;17.30;98.90
39931;DHT22;26635;-35.248;149.138;2023-03-23T02:31:42;17.40;99.20
39931;DHT22;26635;-35.248;149.138;2023-03-23T02:34:22;17.40;99.20
39931;DHT22;26635;-35.248;149.138;2023-03-23T02:37:01;17.50;99.10
39931;DHT22;26635;-35.248;149.138;2023-03-23T02:39:38;17.60;99.00
39931;DHT22;26635;-35.248;149.138;2023-03-23T02:42:11;17.60;98.80
39931;DHT22;26635;-35.248;149.138;2023-03-23T02:44:43;17.70;99.00
39931;DHT22;26635;-35.248;149.138;2023-03-23T02:47:19;17.80;98.70
39931;DHT22;26635;-35.248;149.138;2023-03-23T02:49:53;17.90;98.70
39931;DHT22;26635;-35.248;149.138;2023-03-23T02:52:24;17.90;98.00
39931;DHT22;26635;-35.248;149.138;2023-03-23T02:54:55;18.00;98.30
39931;DHT22;26635;-35.248;149.138;2023-03-23T02:57:26;18.00;97.60
39931;DHT22;26635;-35.248;149.138;2023-03-23T02:59:55;18.10;97.70
39931;DHT22;26635;-35.248;149.138;2023-03-23T03:02:32;18.00;96.70
39931;DHT22;26635;-35.248;149.138;2023-03-23T03:05:08;18.00;97.10
39931;DHT22;26635;-35.248;149.138;2023-03-23T03:13:37;18.20;96.90
39931;DHT22;26635;-35.248;149.138;2023-03-23T03:16:35;18.20;96.80
39931;DHT22;26635;-35.248;149.138;2023-03-23T03:21:57;18.30;96.40
39931;DHT22;26635;-35.248;149.138;2023-03-23T03:24:28;18.40;96.70
39931;DHT22;26635;-35.248;149.138;2023-03-23T03:26:58;18.50;96.70
39931;DHT22;26635;-35.248;149.138;2023-03-23T03:29:32;18.60;96.50
39931;DHT22;26635;-35.248;149.138;2023-03-23T03:32:02;18.70;95.70
39931;DHT22;26635;-35.248;149.138;2023-03-23T03:34:34;18.80;95.30
39931;DHT22;26635;-35.248;149.138;2023-03-23T03:37:03;18.80;94.80
39931;DHT22;26635;-35.248;149.138;2023-03-23T03:39:35;18.80;94.10
39931;DHT22;26635;-35.248;149.138;2023-03-23T03:42:05;18.70;94.00
39931;DHT22;26635;-35.248;149.138;2023-03-23T03:44:34;18.60;94.20
39931;DHT22;26635;-35.248;149.138;2023-03-23T03:47:03;18.60;94.50
39931;DHT22;26635;-35.248;149.138;2023-03-23T03:49:31;18.50;94.60
39931;DHT22;26635;-35.248;149.138;2023-03-23T03:52:00;18.60;95.10
39931;DHT22;26635;-35.248;149.138;2023-03-23T03:54:28;18.60;95.10
39931;DHT22;26635;-35.248;149.138;2023-03-23T03:56:57;18.60;95.40
39931;DHT22;26635;-35.248;149.138;2023-03-23T03:59:26;18.70;94.90
39931;DHT22;26635;-35.248;149.138;2023-03-23T04:01:55;18.70;94.90
39931;DHT22;26635;-35.248;149.138;2023-03-23T04:04:23;18.70;94.70
39931;DHT22;26635;-35.248;149.138;2023-03-23T04:06:51;18.70;94.80
39931;DHT22;26635;-35.248;149.138;2023-03-23T04:09:19;18.80;94.80
39931;DHT22;26635;-35.248;149.138;2023-03-23T04:11:48;18.90;94.60
39931;DHT22;26635;-35.248;149.138;2023-03-23T04:14:16;19.00;94.60
39931;DHT22;26635;-35.248;149.138;2023-03-23T04:16:45;19.00;94.60
39931;DHT22;26635;-35.248;149.138;2023-03-23T04:19:13;19.10;94.10
39931;DHT22;26635;-35.248;149.138;2023-03-23T04:21:42;19.00;93.40
39931;DHT22;26635;-35.248;149.138;2023-03-23T04:24:18;18.90;93.50
39931;DHT22;26635;-35.248;149.138;2023-03-23T04:26:48;18.90;93.20
39931;DHT22;26635;-35.248;149.138;2023-03-23T04:29:19;18.80;93.30
39931;DHT22;26635;-35.248;149.138;2023-03-23T04:31:47;18.80;93.70
39931;DHT22;26635;-35.248;149.138;2023-03-23T04:34:18;18.80;93.70
39931;DHT22;26635;-35.248;149.138;2023-03-23T04:36:46;18.80;93.90
39931;DHT22;26635;-35.248;149.138;2023-03-23T04:39:15;18.90;93.90
39931;DHT22;26635;-35.248;149.138;2023-03-23T04:41:43;18.90;94.30
39931;DHT22;26635;-35.248;149.138;2023-03-23T04:44:13;19.00;94.50
39931;DHT22;26635;-35.248;149.138;2023-03-23T04:46:45;19.20;93.90
39931;DHT22;26635;-35.248;149.138;2023-03-23T04:49:16;19.30;93.40
39931;DHT22;26635;-35.248;149.138;2023-03-23T04:51:48;19.30;93.20
39931;DHT22;26635;-35.248;149.138;2023-03-23T04:54:17;19.40;93.40
39931;DHT22;26635;-35.248;149.138;2023-03-23T04:56:45;19.40;92.90
39931;DHT22;26635;-35.248;149.138;2023-03-23T04:59:14;19.40;92.50
39931;DHT22;26635;-35.248;149.138;2023-03-23T05:01:42;19.40;92.40
39931;DHT22;26635;-35.248;149.138;2023-03-23T05:04:12;19.40;92.20
39931;DHT22;26635;-35.248;149.138;2023-03-23T05:06:44;19.40;92.70
39931;DHT22;26635;-35.248;149.138;2023-03-23T05:09:14;19.50;93.40
39931;DHT22;26635;-35.248;149.138;2023-03-23T05:11:43;19.50;92.70
39931;DHT22;26635;-35.248;149.138;2023-03-23T05:14:12;19.60;92.00
39931;DHT22;26635;-35.248;149.138;2023-03-23T05:16:40;19.60;92.00
39931;DHT22;26635;-35.248;149.138;2023-03-23T05:19:08;19.70;91.40
39931;DHT22;26635;-35.248;149.138;2023-03-23T05:21:36;19.70;91.00
39931;DHT22;26635;-35.248;149.138;2023-03-23T05:24:05;19.70;90.60
39931;DHT22;26635;-35.248;149.138;2023-03-23T05:26:33;19.80;89.80
39931;DHT22;26635;-35.248;149.138;2023-03-23T05:29:01;19.90;90.10
39931;DHT22;26635;-35.248;149.138;2023-03-23T05:31:29;19.90;88.60
39931;DHT22;26635;-35.248;149.138;2023-03-23T05:33:57;19.90;88.70
39931;DHT22;26635;-35.248;149.138;2023-03-23T05:36:26;19.90;89.80
39931;DHT22;26635;-35.248;149.138;2023-03-23T05:38:55;19.90;90.30
39931;DHT22;26635;-35.248;149.138;2023-03-23T05:41:23;19.90;90.60
39931;DHT22;26635;-35.248;149.138;2023-03-23T05:43:52;19.70;90.70
39931;DHT22;26635;-35.248;149.138;2023-03-23T05:46:21;19.70;90.40
39931;DHT22;26635;-35.248;149.138;2023-03-23T05:48:49;19.60;90.60
39931;DHT22;26635;-35.248;149.138;2023-03-23T05:51:17;19.50;90.30
39931;DHT22;26635;-35.248;149.138;2023-03-23T05:53:46;19.40;91.00
39931;DHT22;26635;-35.248;149.138;2023-03-23T05:56:15;19.40;90.60
39931;DHT22;26635;-35.248;149.138;2023-03-23T05:58:43;19.40;90.70
39931;DHT22;26635;-35.248;149.138;2023-03-23T06:01:11;19.40;91.20
39931;DHT22;26635;-35.248;149.138;2023-03-23T06:03:42;19.40;90.90
39931;DHT22;26635;-35.248;149.138;2023-03-23T06:06:13;19.40;92.00
39931;DHT22;26635;-35.248;149.138;2023-03-23T06:08:41;19.30;92.40
39931;DHT22;26635;-35.248;149.138;2023-03-23T06:11:10;19.30;92.90
39931;DHT22;26635;-35.248;149.138;2023-03-23T06:13:39;19.40;92.20
39931;DHT22;26635;-35.248;149.138;2023-03-23T06:16:07;19.40;91.90
39931;DHT22;26635;-35.248;149.138;2023-03-23T06:18:36;19.30;92.00
39931;DHT22;26635;-35.248;149.138;2023-03-23T06:21:04;19.40;92.50
39931;DHT22;26635;-35.248;149.138;2023-03-23T06:23:33;19.40;91.80
39931;DHT22;26635;-35.248;149.138;2023-03-23T06:26:04;19.40;91.40
39931;DHT22;26635;-35.248;149.138;2023-03-23T06:28:33;19.40;92.50
39931;DHT22;26635;-35.248;149.138;2023-03-23T06:31:05;19.40;91.90
39931;DHT22;26635;-35.248;149.138;2023-03-23T06:33:35;19.40;91.70
39931;DHT22;26635;-35.248;149.138;2023-03-23T06:36:05;19.40;90.70
39931;DHT22;26635;-35.248;149.138;2023-03-23T06:38:33;19.40;90.40
39931;DHT22;26635;-35.248;149.138;2023-03-23T06:41:02;19.50;91.00
39931;DHT22;26635;-35.248;149.138;2023-03-23T06:43:30;19.50;90.20
39931;DHT22;26635;-35.248;149.138;2023-03-23T06:46:01;19.50;90.50
39931;DHT22;26635;-35.248;149.138;2023-03-23T06:48:30;19.50;90.80
39931;DHT22;26635;-35.248;149.138;2023-03-23T06:50:58;19.40;90.20
39931;DHT22;26635;-35.248;149.138;2023-03-23T06:53:26;19.50;89.90
39931;DHT22;26635;-35.248;149.138;2023-03-23T06:55:54;19.50;88.80
39931;DHT22;26635;-35.248;149.138;2023-03-23T06:58:22;19.50;88.60
39931;DHT22;26635;-35.248;149.138;2023-03-23T07:00:57;19.40;89.60
39931;DHT22;26635;-35.248;149.138;2023-03-23T07:03:26;19.40;89.60
39931;DHT22;26635;-35.248;149.138;2023-03-23T07:05:55;19.40;90.20
39931;DHT22;26635;-35.248;149.138;2023-03-23T07:08:23;19.40;90.30
39931;DHT22;26635;-35.248;149.138;2023-03-23T07:10:53;19.30;90.00
39931;DHT22;26635;-35.248;149.138;2023-03-23T07:13:21;19.30;88.50
39931;DHT22;26635;-35.248;149.138;2023-03-23T07:15:50;19.30;88.40
39931;DHT22;26635;-35.248;149.138;2023-03-23T07:18:18;19.30;90.10
39931;DHT22;26635;-35.248;149.138;2023-03-23T07:20:51;19.30;90.20
39931;DHT22;26635;-35.248;149.138;2023-03-23T07:23:22;19.30;90.10
39931;DHT22;26635;-35.248;149.138;2023-03-23T07:25:51;19.30;88.90
39931;DHT22;26635;-35.248;149.138;2023-03-23T07:28:19;19.20;89.40
39931;DHT22;26635;-35.248;149.138;2023-03-23T07:30:48;19.20;90.10
39931;DHT22;26635;-35.248;149.138;2023-03-23T07:33:16;19.10;90.10
39931;DHT22;26635;-35.248;149.138;2023-03-23T07:35:44;19.10;90.40
39931;DHT22;26635;-35.248;149.138;2023-03-23T07:38:13;19.00;90.60
39931;DHT22;26635;-35.248;149.138;2023-03-23T07:40:46;19.00;90.40
39931;DHT22;26635;-35.248;149.138;2023-03-23T07:43:18;18.90;91.20
39931;DHT22;26635;-35.248;149.138;2023-03-23T07:45:46;18.90;91.30
39931;DHT22;26635;-35.248;149.138;2023-03-23T07:48:15;18.80;91.50
39931;DHT22;26635;-35.248;149.138;2023-03-23T07:50:43;18.80;92.20
39931;DHT22;26635;-35.248;149.138;2023-03-23T07:53:11;18.70;92.30
39931;DHT22;26635;-35.248;149.138;2023-03-23T07:55:39;18.60;92.30
39931;DHT22;26635;-35.248;149.138;2023-03-23T07:58:07;18.60;92.40
39931;DHT22;26635;-35.248;149.138;2023-03-23T08:00:36;18.50;92.70
39931;DHT22;26635;-35.248;149.138;2023-03-23T08:03:05;18.40;92.80
39931;DHT22;26635;-35.248;149.138;2023-03-23T08:05:34;18.30;92.90
39931;DHT22;26635;-35.248;149.138;2023-03-23T08:08:03;18.30;92.40
39931;DHT22;26635;-35.248;149.138;2023-03-23T08:10:31;18.10;92.50
39931;DHT22;26635;-35.248;149.138;2023-03-23T08:13:00;18.10;93.00
39931;DHT22;26635;-35.248;149.138;2023-03-23T08:15:29;18.00;93.20
39931;DHT22;26635;-35.248;149.138;2023-03-23T08:17:59;17.90;93.20
39931;DHT22;26635;-35.248;149.138;2023-03-23T08:20:28;17.80;92.90
39931;DHT22;26635;-35.248;149.138;2023-03-23T08:22:57;17.80;93.10
39931;DHT22;26635;-35.248;149.138;2023-03-23T08:25:27;17.70;93.60
39931;DHT22;26635;-35.248;149.138;2023-03-23T08:27:59;17.70;94.10
39931;DHT22;26635;-35.248;149.138;2023-03-23T08:30:31;17.60;94.10
39931;DHT22;26635;-35.248;149.138;2023-03-23T08:33:01;17.50;94.20
39931;DHT22;26635;-35.248;149.138;2023-03-23T08:35:32;17.50;94.00
39931;DHT22;26635;-35.248;149.138;2023-03-23T08:38:00;17.40;93.90
39931;DHT22;26635;-35.248;149.138;2023-03-23T08:40:28;17.30;94.00
39931;DHT22;26635;-35.248;149.138;2023-03-23T08:42:56;17.30;94.50
39931;DHT22;26635;-35.248;149.138;2023-03-23T08:45:26;17.20;94.90
39931;DHT22;26635;-35.248;149.138;2023-03-23T08:48:08;17.20;94.90
39931;DHT22;26635;-35.248;149.138;2023-03-23T08:50:36;17.10;94.80
39931;DHT22;26635;-35.248;149.138;2023-03-23T08:53:07;17.10;94.80
39931;DHT22;26635;-35.248;149.138;2023-03-23T08:55:35;17.00;94.50
39931;DHT22;26635;-35.248;149.138;2023-03-23T08:58:04;16.90;94.50
39931;DHT22;26635;-35.248;149.138;2023-03-23T09:00:32;16.90;95.00
39931;DHT22;26635;-35.248;149.138;2023-03-23T09:03:00;16.80;95.50
39931;DHT22;26635;-35.248;149.138;2023-03-23T09:05:29;16.80;95.70
39931;DHT22;26635;-35.248;149.138;2023-03-23T09:07:58;16.80;95.70
39931;DHT22;26635;-35.248;149.138;2023-03-23T09:10:28;16.80;95.70
39931;DHT22;26635;-35.248;149.138;2023-03-23T09:12:57;16.80;96.00
39931;DHT22;26635;-35.248;149.138;2023-03-23T09:15:26;16.70;95.50
39931;DHT22;26635;-35.248;149.138;2023-03-23T09:17:55;16.70;95.10
39931;DHT22;26635;-35.248;149.138;2023-03-23T09:20:26;16.60;95.10
39931;DHT22;26635;-35.248;149.138;2023-03-23T09:22:56;16.60;95.80
39931;DHT22;26635;-35.248;149.138;2023-03-23T09:25:26;16.50;95.50
39931;DHT22;26635;-35.248;149.138;2023-03-23T09:27:56;16.50;95.40
39931;DHT22;26635;-35.248;149.138;2023-03-23T09:30:30;16.50;95.70
39931;DHT22;26635;-35.248;149.138;2023-03-23T09:33:00;16.50;96.40
39931;DHT22;26635;-35.248;149.138;2023-03-23T09:35:29;16.50;96.90
39931;DHT22;26635;-35.248;149.138;2023-03-23T09:37:58;16.50;97.10
39931;DHT22;26635;-35.248;149.138;2023-03-23T09:40:55;16.40;97.10
39931;DHT22;26635;-35.248;149.138;2023-03-23T09:43:36;16.40;97.10
39931;DHT22;26635;-35.248;149.138;2023-03-23T09:49:10;16.30;96.80
39931;DHT22;26635;-35.248;149.138;2023-03-23T09:51:59;16.30;96.80
39931;DHT22;26635;-35.248;149.138;2023-03-23T09:54:40;16.30;96.60
39931;DHT22;26635;-35.248;149.138;2023-03-23T10:00:18;16.20;96.90
39931;DHT22;26635;-35.248;149.138;2023-03-23T10:05:48;16.20;96.60
39931;DHT22;26635;-35.248;149.138;2023-03-23T10:08:26;16.10;97.10
39931;DHT22;26635;-35.248;149.138;2023-03-23T10:11:17;16.10;97.00
39931;DHT22;26635;-35.248;149.138;2023-03-23T10:17:14;16.20;96.70
39931;DHT22;26635;-35.248;149.138;2023-03-23T10:28:39;16.10;96.00
39931;DHT22;26635;-35.248;149.138;2023-03-23T10:31:17;16.00;95.90
39931;DHT22;26635;-35.248;149.138;2023-03-23T10:33:48;15.90;95.70
39931;DHT22;26635;-35.248;149.138;2023-03-23T10:36:35;15.90;95.50
39931;DHT22;26635;-35.248;149.138;2023-03-23T10:39:12;15.80;95.70
39931;DHT22;26635;-35.248;149.138;2023-03-23T10:41:42;15.80;96.20
39931;DHT22;26635;-35.248;149.138;2023-03-23T10:44:30;15.70;96.00
39931;DHT22;26635;-35.248;149.138;2023-03-23T10:47:06;15.70;95.60
39931;DHT22;26635;-35.248;149.138;2023-03-23T10:50:10;15.70;95.90
39931;DHT22;26635;-35.248;149.138;2023-03-23T10:52:34;15.60;96.30
39931;DHT22;26635;-35.248;149.138;2023-03-23T10:55:17;15.60;96.30
39931;DHT22;26635;-35.248;149.138;2023-03-23T10:58:01;15.60;96.40
39931;DHT22;26635;-35.248;149.138;2023-03-23T11:00:30;15.60;96.20
39931;DHT22;26635;-35.248;149.138;2023-03-23T11:03:05;15.50;96.00
39931;DHT22;26635;-35.248;149.138;2023-03-23T11:05:42;15.50;95.90
39931;DHT22;26635;-35.248;149.138;2023-03-23T11:08:16;15.50;96.40
39931;DHT22;26635;-35.248;149.138;2023-03-23T11:10:56;15.50;96.40
39931;DHT22;26635;-35.248;149.138;2023-03-23T11:13:33;15.40;96.30
39931;DHT22;26635;-35.248;149.138;2023-03-23T11:16:02;15.40;96.30
39931;DHT22;26635;-35.248;149.138;2023-03-23T11:18:41;15.40;96.40
39931;DHT22;26635;-35.248;149.138;2023-03-23T11:21:13;15.40;96.30
39931;DHT22;26635;-35.248;149.138;2023-03-23T11:23:47;15.40;96.00
39931;DHT22;26635;-35.248;149.138;2023-03-23T11:26:28;15.40;96.10
39931;DHT22;26635;-35.248;149.138;2023-03-23T11:29:27;15.30;96.10
39931;DHT22;26635;-35.248;149.138;2023-03-23T11:32:05;15.30;96.10
39931;DHT22;26635;-35.248;149.138;2023-03-23T11:34:46;15.30;96.30
39931;DHT22;26635;-35.248;149.138;2023-03-23T11:37:27;15.20;96.20
39931;DHT22;26635;-35.248;149.138;2023-03-23T11:45:38;15.20;96.70
39931;DHT22;26635;-35.248;149.138;2023-03-23T11:53:42;15.10;96.30
39931;DHT22;26635;-35.248;149.138;2023-03-23T11:56:27;15.10;96.20
39931;DHT22;26635;-35.248;149.138;2023-03-23T11:58:58;15.10;96.40
39931;DHT22;26635;-35.248;149.138;2023-03-23T12:01:50;15.00;95.90
39931;DHT22;26635;-35.248;149.138;2023-03-23T12:07:25;15.00;95.90
39931;DHT22;26635;-35.248;149.138;2023-03-23T12:10:22;15.00;96.30
39931;DHT22;26635;-35.248;149.138;2023-03-23T12:13:33;14.90;96.50
39931;DHT22;26635;-35.248;149.138;2023-03-23T12:19:11;14.90;96.20
39931;DHT22;26635;-35.248;149.138;2023-03-23T12:22:09;14.90;96.10
39931;DHT22;26635;-35.248;149.138;2023-03-23T12:38:55;14.60;95.30
39931;DHT22;26635;-35.248;149.138;2023-03-23T12:44:10;14.60;96.00
39931;DHT22;26635;-35.248;149.138;2023-03-23T12:49:27;14.50;96.10
39931;DHT22;26635;-35.248;149.138;2023-03-23T12:51:59;14.50;96.50
39931;DHT22;26635;-35.248;149.138;2023-03-23T12:57:42;14.40;96.40
39931;DHT22;26635;-35.248;149.138;2023-03-23T13:01:09;14.40;96.10
39931;DHT22;26635;-35.248;149.138;2023-03-23T13:03:34;14.40;96.20
39931;DHT22;26635;-35.248;149.138;2023-03-23T13:06:38;14.40;96.20
39931;DHT22;26635;-35.248;149.138;2023-03-23T13:11:41;14.40;96.40
39931;DHT22;26635;-35.248;149.138;2023-03-23T13:17:32;14.30;96.00
39931;DHT22;26635;-35.248;149.138;2023-03-23T13:22:42;14.30;96.50
39931;DHT22;26635;-35.248;149.138;2023-03-23T13:28:04;14.20;96.70
39931;DHT22;26635;-35.248;149.138;2023-03-23T13:30:32;14.20;96.80
39931;DHT22;26635;-35.248;149.138;2023-03-23T13:33:12;14.20;96.70
39931;DHT22;26635;-35.248;149.138;2023-03-23T13:35:42;14.20;96.30
39931;DHT22;26635;-35.248;149.138;2023-03-23T13:38:19;14.20;96.20
39931;DHT22;26635;-35.248;149.138;2023-03-23T13:40:48;14.10;96.10
39931;DHT22;26635;-35.248;149.138;2023-03-23T13:43:32;14.10;96.50
39931;DHT22;26635;-35.248;149.138;2023-03-23T13:56:47;13.90;95.80
39931;DHT22;26635;-35.248;149.138;2023-03-23T13:59:30;13.90;95.90
39931;DHT22;26635;-35.248;149.138;2023-03-23T14:05:48;13.80;95.80
39931;DHT22;26635;-35.248;149.138;2023-03-23T14:10:59;13.80;96.20
39931;DHT22;26635;-35.248;149.138;2023-03-23T14:14:01;13.80;96.20
39931;DHT22;26635;-35.248;149.138;2023-03-23T14:19:28;13.80;96.00
39931;DHT22;26635;-35.248;149.138;2023-03-23T14:21:59;13.70;96.00
39931;DHT22;26635;-35.248;149.138;2023-03-23T14:24:30;13.70;96.00
39931;DHT22;26635;-35.248;149.138;2023-03-23T14:27:20;13.70;96.00
39931;DHT22;26635;-35.248;149.138;2023-03-23T14:30:06;13.70;96.10
39931;DHT22;26635;-35.248;149.138;2023-03-23T14:32:35;13.70;96.10
39931;DHT22;26635;-35.248;149.138;2023-03-23T14:35:30;13.60;96.20
39931;DHT22;26635;-35.248;149.138;2023-03-23T14:37:57;13.60;96.50
39931;DHT22;26635;-35.248;149.138;2023-03-23T14:40:29;13.60;96.00
39931;DHT22;26635;-35.248;149.138;2023-03-23T14:42:59;13.60;96.40
39931;DHT22;26635;-35.248;149.138;2023-03-23T14:45:28;13.60;96.20
39931;DHT22;26635;-35.248;149.138;2023-03-23T14:48:00;13.50;96.10
39931;DHT22;26635;-35.248;149.138;2023-03-23T14:50:39;13.50;96.40
39931;DHT22;26635;-35.248;149.138;2023-03-23T14:55:55;13.60;96.30
39931;DHT22;26635;-35.248;149.138;2023-03-23T14:58:24;13.60;96.60
39931;DHT22;26635;-35.248;149.138;2023-03-23T15:01:07;13.60;96.50
39931;DHT22;26635;-35.248;149.138;2023-03-23T15:03:42;13.60;96.60
39931;DHT22;26635;-35.248;149.138;2023-03-23T15:06:15;13.60;96.50
39931;DHT22;26635;-35.248;149.138;2023-03-23T15:08:45;13.60;96.50
39931;DHT22;26635;-35.248;149.138;2023-03-23T15:13:56;13.60;96.10
39931;DHT22;26635;-35.248;149.138;2023-03-23T15:16:29;13.60;96.00
39931;DHT22;26635;-35.248;149.138;2023-03-23T15:21:30;13.50;96.10
39931;DHT22;26635;-35.248;149.138;2023-03-23T15:23:59;13.50;96.20
39931;DHT22;26635;-35.248;149.138;2023-03-23T15:26:41;13.50;96.00
39931;DHT22;26635;-35.248;149.138;2023-03-23T15:29:20;13.50;95.90
39931;DHT22;26635;-35.248;149.138;2023-03-23T15:31:59;13.40;95.90
39931;DHT22;26635;-35.248;149.138;2023-03-23T15:34:37;13.40;95.80
39931;DHT22;26635;-35.248;149.138;2023-03-23T15:37:21;13.30;95.60
39931;DHT22;26635;-35.248;149.138;2023-03-23T15:39:50;13.40;95.70
39931;DHT22;26635;-35.248;149.138;2023-03-23T15:42:29;13.30;95.60
39931;DHT22;26635;-35.248;149.138;2023-03-23T15:45:24;13.30;95.70
39931;DHT22;26635;-35.248;149.138;2023-03-23T15:47:54;13.30;96.00
39931;DHT22;26635;-35.248;149.138;2023-03-23T15:52:56;13.20;96.30
39931;DHT22;26635;-35.248;149.138;2023-03-23T15:55:50;13.10;95.90
39931;DHT22;26635;-35.248;149.138;2023-03-23T15:58:19;13.10;96.40
39931;DHT22;26635;-35.248;149.138;2023-03-23T16:00:51;13.10;95.90
39931;DHT22;26635;-35.248;149.138;2023-03-23T16:03:40;13.00;95.70
39931;DHT22;26635;-35.248;149.138;2023-03-23T16:06:14;13.00;95.70
39931;DHT22;26635;-35.248;149.138;2023-03-23T16:08:55;13.00;95.80
39931;DHT22;26635;-35.248;149.138;2023-03-23T16:11:29;12.90;96.00
39931;DHT22;26635;-35.248;149.138;2023-03-23T16:14:00;12.90;95.80
39931;DHT22;26635;-35.248;149.138;2023-03-23T16:16:39;12.90;95.90
39931;DHT22;26635;-35.248;149.138;2023-03-23T16:19:14;12.90;95.90
39931;DHT22;26635;-35.248;149.138;2023-03-23T16:21:45;12.80;95.60
39931;DHT22;26635;-35.248;149.138;2023-03-23T16:24:16;12.80;95.60
39931;DHT22;26635;-35.248;149.138;2023-03-23T16:26:46;12.80;95.60
39931;DHT22;26635;-35.248;149.138;2023-03-23T16:29:16;12.70;95.40
39931;DHT22;26635;-35.248;149.138;2023-03-23T16:32:07;12.70;95.80
39931;DHT22;26635;-35.248;149.138;2023-03-23T16:34:37;12.70;95.80
39931;DHT22;26635;-35.248;149.138;2023-03-23T16:37:09;12.70;95.80
39931;DHT22;26635;-35.248;149.138;2023-03-23T16:39:41;12.60;96.20
39931;DHT22;26635;-35.248;149.138;2023-03-23T16:42:11;12.60;96.00
39931;DHT22;26635;-35.248;149.138;2023-03-23T16:44:42;12.60;96.90
39931;DHT22;26635;-35.248;149.138;2023-03-23T16:47:12;12.60;96.20
39931;DHT22;26635;-35.248;149.138;2023-03-23T16:49:44;12.60;96.10
39931;DHT22;26635;-35.248;149.138;2023-03-23T16:52:15;12.50;95.90
39931;DHT22;26635;-35.248;149.138;2023-03-23T16:54:46;12.50;95.70
39931;DHT22;26635;-35.248;149.138;2023-03-23T16:57:17;12.50;96.00
39931;DHT22;26635;-35.248;149.138;2023-03-23T16:59:47;12.40;96.20
39931;DHT22;26635;-35.248;149.138;2023-03-23T17:02:18;12.40;96.50
39931;DHT22;26635;-35.248;149.138;2023-03-23T17:04:48;12.40;96.40
39931;DHT22;26635;-35.248;149.138;2023-03-23T17:07:19;12.40;96.40
39931;DHT22;26635;-35.248;149.138;2023-03-23T17:09:49;12.40;96.10
39931;DHT22;26635;-35.248;149.138;2023-03-23T17:12:20;12.40;95.90
39931;DHT22;26635;-35.248;149.138;2023-03-23T17:14:51;12.30;95.80
39931;DHT22;26635;-35.248;149.138;2023-03-23T17:17:23;12.30;96.10
39931;DHT22;26635;-35.248;149.138;2023-03-23T17:19:54;12.30;95.80